sensor_id;sensor_type;location;lat;lon;timestamp;temperature;humidity
3626;DHT22;1827;50.534;8.316;2023-03-25T00:01:04;7.80;1.00
3626;DHT22;1827;50.534;8.316;2023-03-25T00:03:39;7.80;1.00
3626;DHT22;1827;50.534;8.316;2023-03-25T00:06:12;7.70;1.00
3626;DHT22;1827;50.534;8.316;2023-03-25T00:08:38;7.70;1.00
3626;DHT22;1827;50.534;8.316;2023-03-25T00:11:08;7.70;1.00
3626;DHT22;1827;50.534;8.316;2023-03-25T00:13:38;7.70;1.00
3626;DHT22;1827;50.534;8.316;2023-03-25T00:16:06;7.70;1.00
3626;DHT22;1827;50.534;8.316;2023-03-25T00:18:35;7.70;1.00
3626;DHT22;1827;50.534;8.316;2023-03-25T00:21:06;7.70;1.00
3626;DHT22;1827;50.534;8.316;2023-03-25T00:23:36;7.80;1.00
3626;DHT22;1827;50.534;8.316;2023-03-25T00:26:03;7.70;1.00
3626;DHT22;1827;50.534;8.316;2023-03-25T00:28:34;7.70;1.00
3626;DHT22;1827;50.534;8.316;2023-03-25T00:31:03;7.80;1.00
3626;DHT22;1827;50.534;8.316;2023-03-25T00:33:29;7.80;1.00
3626;DHT22;1827;50.534;8.316;2023-03-25T00:35:58;7.80;1.00
3626;DHT22;1827;50.534;8.316;2023-03-25T00:38:26;7.70;1.00
3626;DHT22;1827;50.534;8.316;2023-03-25T00:41:06;7.60;1.00
3626;DHT22;1827;50.534;8.316;2023-03-25T00:43:32;7.60;1.00
3626;DHT22;1827;50.534;8.316;2023-03-25T00:45:57;7.50;1.00
3626;DHT22;1827;50.534;8.316;2023-03-25T00:48:23;7.40;1.00
3626;DHT22;1827;50.534;8.316;2023-03-25T00:50:49;7.40;1.00
3626;DHT22;1827;50.534;8.316;2023-03-25T00:53:15;7.40;1.00
3626;DHT22;1827;50.534;8.316;2023-03-25T00:55:40;7.40;99.90
3626;DHT22;1827;50.534;8.316;2023-03-25T00:58:06;7.40;99.90
3626;DHT22;1827;50.534;8.316;2023-03-25T01:00:32;7.30;99.90
3626;DHT22;1827;50.534;8.316;2023-03-25T01:02:57;7.30;99.90
3626;DHT22;1827;50.534;8.316;2023-03-25T01:05:25;7.20;99.90
3626;DHT22;1827;50.534;8.316;2023-03-25T01:07:50;7.30;99.90
3626;DHT22;1827;50.534;8.316;2023-03-25T01:10:16;7.30;99.90
3626;DHT22;1827;50.534;8.316;2023-03-25T01:12:43;7.40;99.90
3626;DHT22;1827;50.534;8.316;2023-03-25T01:15:10;7.40;99.90
3626;DHT22;1827;50.534;8.316;2023-03-25T01:17:36;7.40;99.90
3626;DHT22;1827;50.534;8.316;2023-03-25T01:20:02;7.40;99.90
3626;DHT22;1827;50.534;8.316;2023-03-25T01:22:33;7.40;99.90
3626;DHT22;1827;50.534;8.316;2023-03-25T01:25:01;7.30;99.90
3626;DHT22;1827;50.534;8.316;2023-03-25T01:27:29;7.30;99.90
3626;DHT22;1827;50.534;8.316;2023-03-25T01:29:55;7.30;99.90
3626;DHT22;1827;50.534;8.316;2023-03-25T01:32:21;7.20;99.90
3626;DHT22;1827;50.534;8.316;2023-03-25T01:34:51;7.20;99.90
3626;DHT22;1827;50.534;8.316;2023-03-25T01:37:17;7.20;99.90
3626;DHT22;1827;50.534;8.316;2023-03-25T01:39:47;7.20;99.90
3626;DHT22;1827;50.534;8.316;2023-03-25T01:42:13;7.20;99.90
3626;DHT22;1827;50.534;8.316;2023-03-25T01:47:12;7.20;99.90
3626;DHT22;1827;50.534;8.316;2023-03-25T01:49:40;7.30;99.90
3626;DHT22;1827;50.534;8.316;2023-03-25T01:52:16;7.30;99.90
3626;DHT22;1827;50.534;8.316;2023-03-25T01:54:44;7.30;99.90
3626;DHT22;1827;50.534;8.316;2023-03-25T01:57:12;7.30;99.90
3626;DHT22;1827;50.534;8.316;2023-03-25T01:59:42;7.30;99.90
3626;DHT22;1827;50.534;8.316;2023-03-25T02:02:09;7.30;99.90
3626;DHT22;1827;50.534;8.316;2023-03-25T02:04:58;7.40;99.90
3626;DHT22;1827;50.534;8.316;2023-03-25T02:07:30;7.40;99.90
3626;DHT22;1827;50.534;8.316;2023-03-25T02:10:05;7.30;99.90
3626;DHT22;1827;50.534;8.316;2023-03-25T02:12:35;7.40;99.90
3626;DHT22;1827;50.534;8.316;2023-03-25T02:15:04;7.40;99.90
3626;DHT22;1827;50.534;8.316;2023-03-25T02:26:14;7.50;99.90
3626;DHT22;1827;50.534;8.316;2023-03-25T02:28:47;7.50;99.90
3626;DHT22;1827;50.534;8.316;2023-03-25T02:37:17;7.30;99.90
3626;DHT22;1827;50.534;8.316;2023-03-25T02:40:07;7.20;99.90
3626;DHT22;1827;50.534;8.316;2023-03-25T02:42:53;7.10;1.00
3626;DHT22;1827;50.534;8.316;2023-03-25T02:45:30;7.10;1.00
3626;DHT22;1827;50.534;8.316;2023-03-25T02:48:02;7.00;1.00
3626;DHT22;1827;50.534;8.316;2023-03-25T02:50:33;7.00;1.00
3626;DHT22;1827;50.534;8.316;2023-03-25T02:53:04;6.90;1.00
3626;DHT22;1827;50.534;8.316;2023-03-25T02:55:34;6.90;1.00
3626;DHT22;1827;50.534;8.316;2023-03-25T02:58:03;6.90;1.00
3626;DHT22;1827;50.534;8.316;2023-03-25T03:00:31;6.90;1.00
3626;DHT22;1827;50.534;8.316;2023-03-25T03:03:00;7.00;1.00
3626;DHT22;1827;50.534;8.316;2023-03-25T03:21:55;6.90;99.90
3626;DHT22;1827;50.534;8.316;2023-03-25T03:24:33;7.00;99.90
3626;DHT22;1827;50.534;8.316;2023-03-25T03:27:13;7.00;99.90
3626;DHT22;1827;50.534;8.316;2023-03-25T03:29:52;7.00;99.90
3626;DHT22;1827;50.534;8.316;2023-03-25T03:32:26;6.90;99.90
3626;DHT22;1827;50.534;8.316;2023-03-25T03:34:57;6.90;99.90
3626;DHT22;1827;50.534;8.316;2023-03-25T03:37:36;6.80;99.90
3626;DHT22;1827;50.534;8.316;2023-03-25T03:40:09;6.80;99.90
3626;DHT22;1827;50.534;8.316;2023-03-25T03:42:43;6.80;99.90
3626;DHT22;1827;50.534;8.316;2023-03-25T03:45:15;6.90;1.00
3626;DHT22;1827;50.534;8.316;2023-03-25T03:47:46;7.00;1.00
3626;DHT22;1827;50.534;8.316;2023-03-25T03:50:20;7.00;1.00
3626;DHT22;1827;50.534;8.316;2023-03-25T03:55:53;7.20;99.90
3626;DHT22;1827;50.534;8.316;2023-03-25T03:58:34;7.20;99.90
3626;DHT22;1827;50.534;8.316;2023-03-25T04:06:22;7.20;99.90
3626;DHT22;1827;50.534;8.316;2023-03-25T04:11:51;7.30;99.90
3626;DHT22;1827;50.534;8.316;2023-03-25T04:14:18;7.20;99.90
3626;DHT22;1827;50.534;8.316;2023-03-25T04:16:45;7.30;99.90
3626;DHT22;1827;50.534;8.316;2023-03-25T04:19:11;7.30;99.90
3626;DHT22;1827;50.534;8.316;2023-03-25T04:21:44;7.30;99.90
3626;DHT22;1827;50.534;8.316;2023-03-25T04:24:10;7.20;99.90
3626;DHT22;1827;50.534;8.316;2023-03-25T04:26:36;7.10;99.90
3626;DHT22;1827;50.534;8.316;2023-03-25T04:29:05;7.10;99.90
3626;DHT22;1827;50.534;8.316;2023-03-25T04:31:32;7.10;99.90
3626;DHT22;1827;50.534;8.316;2023-03-25T04:33:58;7.20;99.90
3626;DHT22;1827;50.534;8.316;2023-03-25T04:36:26;7.10;99.90
3626;DHT22;1827;50.534;8.316;2023-03-25T04:39:02;7.10;99.90
3626;DHT22;1827;50.534;8.316;2023-03-25T04:41:28;7.10;99.90
3626;DHT22;1827;50.534;8.316;2023-03-25T04:43:53;7.20;99.90
3626;DHT22;1827;50.534;8.316;2023-03-25T04:46:19;7.20;99.90
3626;DHT22;1827;50.534;8.316;2023-03-25T04:48:45;7.10;99.90
3626;DHT22;1827;50.534;8.316;2023-03-25T04:51:13;7.10;99.90
3626;DHT22;1827;50.534;8.316;2023-03-25T04:53:40;7.10;99.90
3626;DHT22;1827;50.534;8.316;2023-03-25T04:56:09;7.10;99.90
3626;DHT22;1827;50.534;8.316;2023-03-25T04:58:43;7.10;99.90
3626;DHT22;1827;50.534;8.316;2023-03-25T05:01:39;7.10;99.90
3626;DHT22;1827;50.534;8.316;2023-03-25T05:04:11;7.10;99.90
3626;DHT22;1827;50.534;8.316;2023-03-25T05:06:40;7.20;99.90
3626;DHT22;1827;50.534;8.316;2023-03-25T05:09:18;7.20;99.90
3626;DHT22;1827;50.534;8.316;2023-03-25T05:11:45;7.10;99.90
3626;DHT22;1827;50.534;8.316;2023-03-25T05:14:12;7.10;99.90
3626;DHT22;1827;50.534;8.316;2023-03-25T05:16:38;7.00;99.90
3626;DHT22;1827;50.534;8.316;2023-03-25T05:19:04;7.00;99.90
3626;DHT22;1827;50.534;8.316;2023-03-25T05:21:35;7.00;99.90
3626;DHT22;1827;50.534;8.316;2023-03-25T05:24:03;6.90;99.90
3626;DHT22;1827;50.534;8.316;2023-03-25T05:26:29;7.00;99.90
3626;DHT22;1827;50.534;8.316;2023-03-25T05:29:00;7.00;99.90
3626;DHT22;1827;50.534;8.316;2023-03-25T05:31:27;7.00;99.90
3626;DHT22;1827;50.534;8.316;2023-03-25T05:33:54;7.00;99.90
3626;DHT22;1827;50.534;8.316;2023-03-25T05:36:19;7.10;74.30
3626;DHT22;1827;50.534;8.316;2023-03-25T05:38:45;7.00;9.00
3626;DHT22;1827;50.534;8.316;2023-03-25T05:41:14;7.00;1.00
3626;DHT22;1827;50.534;8.316;2023-03-25T05:43:44;7.00;1.00
3626;DHT22;1827;50.534;8.316;2023-03-25T05:46:18;7.00;1.00
3626;DHT22;1827;50.534;8.316;2023-03-25T05:48:44;7.00;1.00
3626;DHT22;1827;50.534;8.316;2023-03-25T05:51:15;7.00;1.00
3626;DHT22;1827;50.534;8.316;2023-03-25T05:53:45;7.10;1.00
3626;DHT22;1827;50.534;8.316;2023-03-25T05:56:18;7.10;1.00
3626;DHT22;1827;50.534;8.316;2023-03-25T05:58:49;7.20;1.00
3626;DHT22;1827;50.534;8.316;2023-03-25T06:01:16;7.20;1.00
3626;DHT22;1827;50.534;8.316;2023-03-25T06:03:42;7.10;1.00
3626;DHT22;1827;50.534;8.316;2023-03-25T06:06:09;7.10;1.00
3626;DHT22;1827;50.534;8.316;2023-03-25T06:08:42;7.10;1.00
3626;DHT22;1827;50.534;8.316;2023-03-25T06:11:09;7.20;1.00
3626;DHT22;1827;50.534;8.316;2023-03-25T06:13:39;7.20;1.00
3626;DHT22;1827;50.534;8.316;2023-03-25T06:16:07;7.40;1.00
3626;DHT22;1827;50.534;8.316;2023-03-25T06:18:34;7.50;1.00
3626;DHT22;1827;50.534;8.316;2023-03-25T06:21:00;7.60;1.00
3626;DHT22;1827;50.534;8.316;2023-03-25T06:23:26;7.60;1.00
3626;DHT22;1827;50.534;8.316;2023-03-25T06:25:53;7.70;1.00
3626;DHT22;1827;50.534;8.316;2023-03-25T06:28:19;7.60;1.00
3626;DHT22;1827;50.534;8.316;2023-03-25T06:30:46;7.70;1.00
3626;DHT22;1827;50.534;8.316;2023-03-25T06:33:14;7.90;1.00
3626;DHT22;1827;50.534;8.316;2023-03-25T06:35:41;8.00;1.00
3626;DHT22;1827;50.534;8.316;2023-03-25T06:38:08;8.10;99.90
3626;DHT22;1827;50.534;8.316;2023-03-25T06:40:50;8.10;99.90
3626;DHT22;1827;50.534;8.316;2023-03-25T06:43:16;8.20;99.90
3626;DHT22;1827;50.534;8.316;2023-03-25T06:46:02;8.30;99.90
3626;DHT22;1827;50.534;8.316;2023-03-25T06:49:03;8.60;99.90
3626;DHT22;1827;50.534;8.316;2023-03-25T06:51:29;8.90;99.90
3626;DHT22;1827;50.534;8.316;2023-03-25T06:53:55;8.80;99.90
3626;DHT22;1827;50.534;8.316;2023-03-25T06:56:21;9.00;99.90
3626;DHT22;1827;50.534;8.316;2023-03-25T06:58:47;8.80;99.90
3626;DHT22;1827;50.534;8.316;2023-03-25T07:01:12;8.70;99.90
3626;DHT22;1827;50.534;8.316;2023-03-25T07:03:38;8.60;72.30
3626;DHT22;1827;50.534;8.316;2023-03-25T07:06:05;8.60;33.80
3626;DHT22;1827;50.534;8.316;2023-03-25T07:08:32;8.60;15.70
3626;DHT22;1827;50.534;8.316;2023-03-25T07:11:02;8.70;1.00
3626;DHT22;1827;50.534;8.316;2023-03-25T07:13:28;8.50;1.00
3626;DHT22;1827;50.534;8.316;2023-03-25T07:15:56;8.30;1.00
3626;DHT22;1827;50.534;8.316;2023-03-25T07:18:22;8.30;1.00
3626;DHT22;1827;50.534;8.316;2023-03-25T07:20:48;8.30;1.00
3626;DHT22;1827;50.534;8.316;2023-03-25T07:23:13;8.40;1.00
3626;DHT22;1827;50.534;8.316;2023-03-25T07:25:39;8.50;1.00
3626;DHT22;1827;50.534;8.316;2023-03-25T07:28:05;8.50;1.00
3626;DHT22;1827;50.534;8.316;2023-03-25T07:30:33;8.50;1.00
3626;DHT22;1827;50.534;8.316;2023-03-25T07:32:59;8.50;1.00
3626;DHT22;1827;50.534;8.316;2023-03-25T07:35:25;8.40;1.00
3626;DHT22;1827;50.534;8.316;2023-03-25T07:37:50;8.30;1.00
3626;DHT22;1827;50.534;8.316;2023-03-25T07:40:16;8.30;1.00
3626;DHT22;1827;50.534;8.316;2023-03-25T07:42:43;8.30;1.00
3626;DHT22;1827;50.534;8.316;2023-03-25T07:45:19;8.40;1.00
3626;DHT22;1827;50.534;8.316;2023-03-25T07:47:46;8.40;1.00
3626;DHT22;1827;50.534;8.316;2023-03-25T07:50:19;8.40;1.00
3626;DHT22;1827;50.534;8.316;2023-03-25T07:52:45;8.40;1.00
3626;DHT22;1827;50.534;8.316;2023-03-25T07:55:11;8.50;1.00
3626;DHT22;1827;50.534;8.316;2023-03-25T07:57:37;8.60;1.00
3626;DHT22;1827;50.534;8.316;2023-03-25T08:00:03;8.70;1.00
3626;DHT22;1827;50.534;8.316;2023-03-25T08:02:37;8.90;1.00
3626;DHT22;1827;50.534;8.316;2023-03-25T08:05:07;9.00;1.00
3626;DHT22;1827;50.534;8.316;2023-03-25T08:07:33;9.20;1.00
3626;DHT22;1827;50.534;8.316;2023-03-25T08:09:58;9.20;1.00
3626;DHT22;1827;50.534;8.316;2023-03-25T08:12:24;9.40;1.00
3626;DHT22;1827;50.534;8.316;2023-03-25T08:14:50;9.40;1.00
3626;DHT22;1827;50.534;8.316;2023-03-25T08:17:16;9.40;1.00
3626;DHT22;1827;50.534;8.316;2023-03-25T08:19:41;9.60;1.00
3626;DHT22;1827;50.534;8.316;2023-03-25T08:22:08;9.80;1.00
3626;DHT22;1827;50.534;8.316;2023-03-25T08:24:34;9.90;1.00
3626;DHT22;1827;50.534;8.316;2023-03-25T08:26:59;10.00;1.00
3626;DHT22;1827;50.534;8.316;2023-03-25T08:29:26;10.00;1.00
3626;DHT22;1827;50.534;8.316;2023-03-25T08:31:52;9.90;1.00
3626;DHT22;1827;50.534;8.316;2023-03-25T08:34:20;10.10;1.00
3626;DHT22;1827;50.534;8.316;2023-03-25T08:36:46;10.10;1.00
3626;DHT22;1827;50.534;8.316;2023-03-25T08:39:11;10.30;1.00
3626;DHT22;1827;50.534;8.316;2023-03-25T08:41:43;10.30;1.00
3626;DHT22;1827;50.534;8.316;2023-03-25T08:44:09;10.10;1.00
3626;DHT22;1827;50.534;8.316;2023-03-25T08:46:35;9.90;1.00
3626;DHT22;1827;50.534;8.316;2023-03-25T08:49:02;9.70;1.00
3626;DHT22;1827;50.534;8.316;2023-03-25T08:51:28;9.40;1.00
3626;DHT22;1827;50.534;8.316;2023-03-25T08:53:53;9.20;1.00
3626;DHT22;1827;50.534;8.316;2023-03-25T08:56:19;9.10;1.00
3626;DHT22;1827;50.534;8.316;2023-03-25T08:58:45;9.00;1.00
3626;DHT22;1827;50.534;8.316;2023-03-25T09:01:11;9.00;1.00
3626;DHT22;1827;50.534;8.316;2023-03-25T09:03:37;9.10;1.00
3626;DHT22;1827;50.534;8.316;2023-03-25T09:06:06;9.00;1.00
3626;DHT22;1827;50.534;8.316;2023-03-25T09:08:35;9.00;1.00
3626;DHT22;1827;50.534;8.316;2023-03-25T09:11:02;9.00;1.00
3626;DHT22;1827;50.534;8.316;2023-03-25T09:13:28;8.40;1.00
3626;DHT22;1827;50.534;8.316;2023-03-25T09:15:57;7.10;1.00
3626;DHT22;1827;50.534;8.316;2023-03-25T09:18:25;5.40;1.00
3626;DHT22;1827;50.534;8.316;2023-03-25T09:20:51;4.80;1.00
3626;DHT22;1827;50.534;8.316;2023-03-25T09:23:17;4.70;1.00
3626;DHT22;1827;50.534;8.316;2023-03-25T09:25:43;4.80;1.00
3626;DHT22;1827;50.534;8.316;2023-03-25T09:28:09;4.90;1.00
3626;DHT22;1827;50.534;8.316;2023-03-25T09:30:35;5.10;1.00
3626;DHT22;1827;50.534;8.316;2023-03-25T09:33:00;5.20;1.00
3626;DHT22;1827;50.534;8.316;2023-03-25T09:35:28;5.50;1.00
3626;DHT22;1827;50.534;8.316;2023-03-25T09:37:53;5.80;1.00
3626;DHT22;1827;50.534;8.316;2023-03-25T09:40:20;6.00;1.00
3626;DHT22;1827;50.534;8.316;2023-03-25T09:42:49;6.20;1.00
3626;DHT22;1827;50.534;8.316;2023-03-25T09:45:44;6.40;1.00
3626;DHT22;1827;50.534;8.316;2023-03-25T09:48:46;7.00;1.00
3626;DHT22;1827;50.534;8.316;2023-03-25T09:51:27;7.30;1.00
3626;DHT22;1827;50.534;8.316;2023-03-25T09:56:42;7.50;1.00
3626;DHT22;1827;50.534;8.316;2023-03-25T09:59:20;8.10;1.00
3626;DHT22;1827;50.534;8.316;2023-03-25T10:05:02;8.70;1.00
3626;DHT22;1827;50.534;8.316;2023-03-25T10:10:46;9.30;1.00
3626;DHT22;1827;50.534;8.316;2023-03-25T10:13:24;9.90;1.00
3626;DHT22;1827;50.534;8.316;2023-03-25T10:18:33;10.40;1.00
3626;DHT22;1827;50.534;8.316;2023-03-25T10:21:22;11.00;1.00
3626;DHT22;1827;50.534;8.316;2023-03-25T10:26:27;11.20;1.00
3626;DHT22;1827;50.534;8.316;2023-03-25T10:29:04;11.30;1.00
3626;DHT22;1827;50.534;8.316;2023-03-25T10:31:34;11.50;1.00
3626;DHT22;1827;50.534;8.316;2023-03-25T10:34:16;11.60;1.00
3626;DHT22;1827;50.534;8.316;2023-03-25T10:36:53;11.60;1.00
3626;DHT22;1827;50.534;8.316;2023-03-25T10:39:23;11.90;1.00
3626;DHT22;1827;50.534;8.316;2023-03-25T10:42:32;12.40;1.00
3626;DHT22;1827;50.534;8.316;2023-03-25T10:44:59;12.90;1.00
3626;DHT22;1827;50.534;8.316;2023-03-25T10:47:32;13.60;1.00
3626;DHT22;1827;50.534;8.316;2023-03-25T10:50:01;13.30;1.00
3626;DHT22;1827;50.534;8.316;2023-03-25T10:52:27;13.00;1.00
3626;DHT22;1827;50.534;8.316;2023-03-25T10:54:54;12.40;1.00
3626;DHT22;1827;50.534;8.316;2023-03-25T10:57:28;12.00;1.00
3626;DHT22;1827;50.534;8.316;2023-03-25T11:02:23;11.70;1.00
3626;DHT22;1827;50.534;8.316;2023-03-25T11:04:57;11.40;1.00
3626;DHT22;1827;50.534;8.316;2023-03-25T11:10:30;11.00;1.00
3626;DHT22;1827;50.534;8.316;2023-03-25T11:12:57;11.20;1.00
3626;DHT22;1827;50.534;8.316;2023-03-25T11:15:25;11.40;1.00
3626;DHT22;1827;50.534;8.316;2023-03-25T11:18:12;11.70;1.00
3626;DHT22;1827;50.534;8.316;2023-03-25T11:20:47;11.60;1.00
3626;DHT22;1827;50.534;8.316;2023-03-25T11:23:32;11.90;1.00
3626;DHT22;1827;50.534;8.316;2023-03-25T11:26:07;12.40;1.00
3626;DHT22;1827;50.534;8.316;2023-03-25T11:28:49;12.60;1.00
3626;DHT22;1827;50.534;8.316;2023-03-25T11:33:46;12.80;1.00
3626;DHT22;1827;50.534;8.316;2023-03-25T11:36:28;13.00;1.00
3626;DHT22;1827;50.534;8.316;2023-03-25T11:39:08;12.90;1.00
3626;DHT22;1827;50.534;8.316;2023-03-25T11:41:35;12.90;1.00
3626;DHT22;1827;50.534;8.316;2023-03-25T11:44:05;13.10;1.00
3626;DHT22;1827;50.534;8.316;2023-03-25T11:46:32;13.40;1.00
3626;DHT22;1827;50.534;8.316;2023-03-25T11:49:08;13.30;1.00
3626;DHT22;1827;50.534;8.316;2023-03-25T11:51:35;13.60;1.00
3626;DHT22;1827;50.534;8.316;2023-03-25T11:54:10;13.60;1.00
3626;DHT22;1827;50.534;8.316;2023-03-25T11:56:40;13.70;1.00
3626;DHT22;1827;50.534;8.316;2023-03-25T11:59:25;13.60;1.00
3626;DHT22;1827;50.534;8.316;2023-03-25T12:02:00;13.10;99.90
3626;DHT22;1827;50.534;8.316;2023-03-25T12:04:27;13.30;99.90
3626;DHT22;1827;50.534;8.316;2023-03-25T12:06:58;13.60;99.90
3626;DHT22;1827;50.534;8.316;2023-03-25T12:09:26;14.00;99.90
3626;DHT22;1827;50.534;8.316;2023-03-25T12:25:57;13.00;99.90
3626;DHT22;1827;50.534;8.316;2023-03-25T12:52:46;12.80;99.90
3626;DHT22;1827;50.534;8.316;2023-03-25T13:08:50;13.90;99.90
3626;DHT22;1827;50.534;8.316;2023-03-25T13:13:56;14.10;99.90
3626;DHT22;1827;50.534;8.316;2023-03-25T13:16:25;13.90;99.90
3626;DHT22;1827;50.534;8.316;2023-03-25T13:19:42;13.80;99.90
3626;DHT22;1827;50.534;8.316;2023-03-25T13:21:51;13.30;99.90
3626;DHT22;1827;50.534;8.316;2023-03-25T13:24:44;13.10;99.90
3626;DHT22;1827;50.534;8.316;2023-03-25T13:27:12;12.90;99.90
3626;DHT22;1827;50.534;8.316;2023-03-25T13:29:44;12.80;99.90
3626;DHT22;1827;50.534;8.316;2023-03-25T13:32:25;12.70;99.90
3626;DHT22;1827;50.534;8.316;2023-03-25T13:35:01;12.40;99.90
3626;DHT22;1827;50.534;8.316;2023-03-25T13:37:37;12.10;99.90
3626;DHT22;1827;50.534;8.316;2023-03-25T13:46:14;12.10;99.90
3626;DHT22;1827;50.534;8.316;2023-03-25T13:48:57;12.30;99.90
3626;DHT22;1827;50.534;8.316;2023-03-25T13:51:26;12.70;99.90
3626;DHT22;1827;50.534;8.316;2023-03-25T13:54:22;12.90;99.90
3626;DHT22;1827;50.534;8.316;2023-03-25T14:13:25;13.20;99.90
3626;DHT22;1827;50.534;8.316;2023-03-25T14:16:00;13.30;99.90
3626;DHT22;1827;50.534;8.316;2023-03-25T14:18:28;13.10;99.90
3626;DHT22;1827;50.534;8.316;2023-03-25T14:23:38;13.00;99.90
3626;DHT22;1827;50.534;8.316;2023-03-25T14:26:07;12.80;99.90
3626;DHT22;1827;50.534;8.316;2023-03-25T14:28:41;12.90;99.90
3626;DHT22;1827;50.534;8.316;2023-03-25T14:31:29;13.10;99.90
3626;DHT22;1827;50.534;8.316;2023-03-25T14:38:57;12.90;99.90
3626;DHT22;1827;50.534;8.316;2023-03-25T14:41:56;12.90;99.90
3626;DHT22;1827;50.534;8.316;2023-03-25T14:44:22;13.40;99.90
3626;DHT22;1827;50.534;8.316;2023-03-25T14:47:25;13.40;99.90
3626;DHT22;1827;50.534;8.316;2023-03-25T14:52:57;13.20;99.90
3626;DHT22;1827;50.534;8.316;2023-03-25T14:55:33;13.20;99.90
3626;DHT22;1827;50.534;8.316;2023-03-25T14:58:04;13.40;99.90
3626;DHT22;1827;50.534;8.316;2023-03-25T15:00:34;13.70;99.90
3626;DHT22;1827;50.534;8.316;2023-03-25T15:03:13;13.90;99.90
3626;DHT22;1827;50.534;8.316;2023-03-25T15:05:42;13.50;99.90
3626;DHT22;1827;50.534;8.316;2023-03-25T15:10:41;13.30;99.90
3626;DHT22;1827;50.534;8.316;2023-03-25T15:21:04;13.00;99.90
3626;DHT22;1827;50.534;8.316;2023-03-25T15:23:52;12.90;99.90
3626;DHT22;1827;50.534;8.316;2023-03-25T15:26:54;12.70;99.90
3626;DHT22;1827;50.534;8.316;2023-03-25T15:32:55;12.90;99.90
3626;DHT22;1827;50.534;8.316;2023-03-25T15:35:40;12.80;99.90
3626;DHT22;1827;50.534;8.316;2023-03-25T15:38:33;12.70;99.90
3626;DHT22;1827;50.534;8.316;2023-03-25T15:44:03;12.70;99.90
3626;DHT22;1827;50.534;8.316;2023-03-25T15:46:41;12.60;99.90
3626;DHT22;1827;50.534;8.316;2023-03-25T15:49:20;12.70;99.90
3626;DHT22;1827;50.534;8.316;2023-03-25T15:54:37;12.40;99.90
3626;DHT22;1827;50.534;8.316;2023-03-25T16:00:17;12.20;99.90
3626;DHT22;1827;50.534;8.316;2023-03-25T16:05:27;11.70;99.90
3626;DHT22;1827;50.534;8.316;2023-03-25T16:07:54;10.80;99.90
3626;DHT22;1827;50.534;8.316;2023-03-25T16:10:29;10.40;99.90
3626;DHT22;1827;50.534;8.316;2023-03-25T16:13:14;10.20;99.90
3626;DHT22;1827;50.534;8.316;2023-03-25T16:15:52;10.10;1.00
3626;DHT22;1827;50.534;8.316;2023-03-25T16:18:20;10.00;1.00
3626;DHT22;1827;50.534;8.316;2023-03-25T16:20:46;10.00;1.00
3626;DHT22;1827;50.534;8.316;2023-03-25T16:23:21;9.80;1.00
3626;DHT22;1827;50.534;8.316;2023-03-25T16:25:48;9.70;1.00
3626;DHT22;1827;50.534;8.316;2023-03-25T16:28:21;9.70;1.00
3626;DHT22;1827;50.534;8.316;2023-03-25T16:30:49;9.70;1.00
3626;DHT22;1827;50.534;8.316;2023-03-25T16:33:20;9.90;1.00
3626;DHT22;1827;50.534;8.316;2023-03-25T16:36:00;9.90;1.00
3626;DHT22;1827;50.534;8.316;2023-03-25T16:38:28;10.00;1.00
3626;DHT22;1827;50.534;8.316;2023-03-25T16:41:11;9.90;1.00
3626;DHT22;1827;50.534;8.316;2023-03-25T16:43:39;10.00;1.00
3626;DHT22;1827;50.534;8.316;2023-03-25T16:46:06;9.80;1.00
3626;DHT22;1827;50.534;8.316;2023-03-25T16:48:34;9.90;1.00
3626;DHT22;1827;50.534;8.316;2023-03-25T16:51:27;10.00;1.00
3626;DHT22;1827;50.534;8.316;2023-03-25T16:53:55;10.00;1.00
3626;DHT22;1827;50.534;8.316;2023-03-25T16:56:29;10.00;1.00
3626;DHT22;1827;50.534;8.316;2023-03-25T16:59:02;9.90;1.00
3626;DHT22;1827;50.534;8.316;2023-03-25T17:01:39;10.20;1.00
3626;DHT22;1827;50.534;8.316;2023-03-25T17:04:14;10.40;1.00
3626;DHT22;1827;50.534;8.316;2023-03-25T17:06:45;10.50;1.00
3626;DHT22;1827;50.534;8.316;2023-03-25T17:09:16;10.70;1.00
3626;DHT22;1827;50.534;8.316;2023-03-25T17:11:44;10.70;1.00
3626;DHT22;1827;50.534;8.316;2023-03-25T17:14:17;10.70;1.00
3626;DHT22;1827;50.534;8.316;2023-03-25T17:16:44;10.60;1.00
3626;DHT22;1827;50.534;8.316;2023-03-25T17:19:13;10.50;1.00
3626;DHT22;1827;50.534;8.316;2023-03-25T17:24:57;10.50;1.00
3626;DHT22;1827;50.534;8.316;2023-03-25T17:27:33;10.50;1.00
3626;DHT22;1827;50.534;8.316;2023-03-25T17:30:18;10.50;1.00
3626;DHT22;1827;50.534;8.316;2023-03-25T17:32:46;10.50;1.00
3626;DHT22;1827;50.534;8.316;2023-03-25T17:35:30;10.40;1.00
3626;DHT22;1827;50.534;8.316;2023-03-25T17:37:56;10.30;1.00
3626;DHT22;1827;50.534;8.316;2023-03-25T17:40:26;10.20;1.00
3626;DHT22;1827;50.534;8.316;2023-03-25T17:42:53;10.30;1.00
3626;DHT22;1827;50.534;8.316;2023-03-25T17:45:20;10.20;1.00
3626;DHT22;1827;50.534;8.316;2023-03-25T17:47:48;10.20;1.00
3626;DHT22;1827;50.534;8.316;2023-03-25T17:50:19;10.20;1.00
3626;DHT22;1827;50.534;8.316;2023-03-25T17:52:45;10.10;1.00
3626;DHT22;1827;50.534;8.316;2023-03-25T17:55:12;10.10;1.00
3626;DHT22;1827;50.534;8.316;2023-03-25T17:57:38;10.00;1.00
3626;DHT22;1827;50.534;8.316;2023-03-25T18:00:05;10.00;1.00
3626;DHT22;1827;50.534;8.316;2023-03-25T18:02:46;10.00;99.90
3626;DHT22;1827;50.534;8.316;2023-03-25T18:05:11;10.00;99.90
3626;DHT22;1827;50.534;8.316;2023-03-25T18:07:38;9.90;99.90
3626;DHT22;1827;50.534;8.316;2023-03-25T18:10:16;9.90;99.90
3626;DHT22;1827;50.534;8.316;2023-03-25T18:12:42;9.90;99.90
3626;DHT22;1827;50.534;8.316;2023-03-25T18:15:08;9.80;99.90
3626;DHT22;1827;50.534;8.316;2023-03-25T18:17:34;9.80;99.90
3626;DHT22;1827;50.534;8.316;2023-03-25T18:20:04;9.90;99.90
3626;DHT22;1827;50.534;8.316;2023-03-25T18:22:35;9.80;99.90
3626;DHT22;1827;50.534;8.316;2023-03-25T18:25:01;9.90;99.90
3626;DHT22;1827;50.534;8.316;2023-03-25T18:27:27;9.90;99.90
3626;DHT22;1827;50.534;8.316;2023-03-25T18:29:52;9.90;99.90
3626;DHT22;1827;50.534;8.316;2023-03-25T18:32:18;9.90;99.90
3626;DHT22;1827;50.534;8.316;2023-03-25T18:34:43;9.90;99.90
3626;DHT22;1827;50.534;8.316;2023-03-25T18:37:10;9.80;1.00
3626;DHT22;1827;50.534;8.316;2023-03-25T18:39:36;9.80;99.90
3626;DHT22;1827;50.534;8.316;2023-03-25T18:42:02;9.80;99.90
3626;DHT22;1827;50.534;8.316;2023-03-25T18:44:28;9.80;99.90
3626;DHT22;1827;50.534;8.316;2023-03-25T18:46:55;9.70;99.90
3626;DHT22;1827;50.534;8.316;2023-03-25T18:49:21;9.80;99.90
3626;DHT22;1827;50.534;8.316;2023-03-25T18:51:46;9.70;99.90
3626;DHT22;1827;50.534;8.316;2023-03-25T18:54:12;9.70;99.90
3626;DHT22;1827;50.534;8.316;2023-03-25T18:56:38;9.70;99.90
3626;DHT22;1827;50.534;8.316;2023-03-25T18:59:07;9.70;1.00
3626;DHT22;1827;50.534;8.316;2023-03-25T19:01:33;9.60;1.00
3626;DHT22;1827;50.534;8.316;2023-03-25T19:04:00;9.60;1.00
3626;DHT22;1827;50.534;8.316;2023-03-25T19:06:32;9.60;1.00
3626;DHT22;1827;50.534;8.316;2023-03-25T19:08:58;9.60;1.00
3626;DHT22;1827;50.534;8.316;2023-03-25T19:11:24;9.60;1.00
3626;DHT22;1827;50.534;8.316;2023-03-25T19:13:51;9.50;1.00
3626;DHT22;1827;50.534;8.316;2023-03-25T19:16:20;9.50;1.00
3626;DHT22;1827;50.534;8.316;2023-03-25T19:18:49;9.40;1.00
3626;DHT22;1827;50.534;8.316;2023-03-25T19:21:17;9.40;1.00
3626;DHT22;1827;50.534;8.316;2023-03-25T19:23:46;9.30;1.00
3626;DHT22;1827;50.534;8.316;2023-03-25T19:26:12;9.30;1.00
3626;DHT22;1827;50.534;8.316;2023-03-25T19:28:38;9.30;1.00
3626;DHT22;1827;50.534;8.316;2023-03-25T19:31:07;9.20;1.00
3626;DHT22;1827;50.534;8.316;2023-03-25T19:33:36;9.20;1.00
3626;DHT22;1827;50.534;8.316;2023-03-25T19:36:02;9.10;1.00
3626;DHT22;1827;50.534;8.316;2023-03-25T19:38:29;9.10;1.00
3626;DHT22;1827;50.534;8.316;2023-03-25T19:41:06;9.00;1.00
3626;DHT22;1827;50.534;8.316;2023-03-25T19:43:35;9.00;1.00
3626;DHT22;1827;50.534;8.316;2023-03-25T19:46:01;9.00;1.00
3626;DHT22;1827;50.534;8.316;2023-03-25T19:48:27;9.00;1.00